createdAt,value
2018-01-03T00:01:03.852Z,90.09
2018-01-03T00:02:10.747Z,90.12
2018-01-03T00:03:17.479Z,90.13
2018-01-03T00:04:24.216Z,90.17
2018-01-03T00:05:30.991Z,90.24
2018-01-03T00:06:37.735Z,90.26
2018-01-03T00:07:44.464Z,90.27
2018-01-03T00:08:51.171Z,90.29
2018-01-03T00:09:57.900Z,90.34
2018-01-03T00:11:04.616Z,90.37
2018-01-03T00:12:11.437Z,90.41
2018-01-03T00:13:18.137Z,90.45
2018-01-03T00:14:24.854Z,90.46
2018-01-03T00:15:31.794Z,90.49
2018-01-03T00:16:38.544Z,90.47
2018-01-03T00:17:45.308Z,90.52
2018-01-03T00:18:52.090Z,90.55
2018-01-03T00:19:59.144Z,90.59
2018-01-03T00:21:05.988Z,90.61
2018-01-03T00:22:12.740Z,90.67
2018-01-03T00:23:19.517Z,90.71
2018-01-03T00:24:26.280Z,90.68
2018-01-03T00:25:33.020Z,90.72
2018-01-03T00:26:39.787Z,90.77
2018-01-03T00:27:46.548Z,90.78
2018-01-03T00:28:53.307Z,90.79
2018-01-03T00:30:00.070Z,90.86
2018-01-03T00:31:06.872Z,90.86
2018-01-03T00:32:13.622Z,90.92
2018-01-03T00:33:20.412Z,90.96
2018-01-03T00:34:27.212Z,90.99
2018-01-03T00:35:33.963Z,91.01
2018-01-03T00:36:40.700Z,91.06
2018-01-03T00:37:47.476Z,91.09
2018-01-03T00:38:54.417Z,91.11
2018-01-03T00:40:01.376Z,91.13
2018-01-03T00:41:08.172Z,91.17
2018-01-03T00:42:14.920Z,91.22
2018-01-03T00:43:21.691Z,91.25
2018-01-03T00:44:28.450Z,91.27
2018-01-03T00:45:35.223Z,91.29
2018-01-03T00:46:41.980Z,91.32
2018-01-03T00:47:48.728Z,91.34
2018-01-03T00:48:55.472Z,91.36
2018-01-03T00:50:02.309Z,91.38
2018-01-03T00:51:09.175Z,91.41
2018-01-03T00:52:15.924Z,91.44
2018-01-03T00:53:22.728Z,91.49
2018-01-03T00:54:29.475Z,91.52
2018-01-03T00:55:36.233Z,91.53
2018-01-03T00:56:43.064Z,91.54
2018-01-03T00:57:49.807Z,91.57
2018-01-03T00:58:56.752Z,91.59
2018-01-03T01:00:03.556Z,91.62
2018-01-03T01:01:10.358Z,91.63
2018-01-03T01:02:17.096Z,91.66
2018-01-03T01:03:23.980Z,91.69
2018-01-03T01:04:30.703Z,91.71
2018-01-03T01:05:37.488Z,91.77
2018-01-03T01:06:44.236Z,91.77
2018-01-03T01:07:51.023Z,91.81
2018-01-03T01:08:57.767Z,91.83
2018-01-03T01:10:04.508Z,91.86
2018-01-03T01:11:11.269Z,91.89
2018-01-03T01:12:18.087Z,91.91
2018-01-03T01:13:24.821Z,91.94
2018-01-03T01:14:31.553Z,91.95
2018-01-03T01:15:38.325Z,92.01
2018-01-03T01:16:45.069Z,92.02
2018-01-03T01:17:51.812Z,92.02
2018-01-03T01:18:58.551Z,92.09
2018-01-03T01:20:05.313Z,92.12
2018-01-03T01:21:12.051Z,92.13
2018-01-03T01:22:18.902Z,92.16
2018-01-03T01:23:25.668Z,92.17
2018-01-03T01:24:32.412Z,92.21
2018-01-03T01:25:39.299Z,92.25
2018-01-03T01:26:47.384Z,92.27
2018-01-03T01:27:53.104Z,92.28
2018-01-03T01:28:59.841Z,92.32
2018-01-03T01:30:06.569Z,92.35
2018-01-03T01:31:13.532Z,92.38
2018-01-03T01:32:20.409Z,92.41
2018-01-03T01:33:27.144Z,92.41
2018-01-03T01:34:33.960Z,92.46
2018-01-03T01:35:40.731Z,92.47
2018-01-03T01:36:47.488Z,92.50
2018-01-03T01:37:54.387Z,92.53
2018-01-03T01:39:01.044Z,92.56
2018-01-03T01:40:07.781Z,92.56
2018-01-03T01:41:14.581Z,92.56
2018-01-03T01:42:21.436Z,92.62
2018-01-03T01:43:28.209Z,92.64
2018-01-03T01:44:35.115Z,92.65
2018-01-03T01:45:41.935Z,92.69
2018-01-03T01:46:48.691Z,92.69
2018-01-03T01:47:55.441Z,92.69
2018-01-03T01:49:02.289Z,92.71
2018-01-03T01:50:09.237Z,92.75
2018-01-03T01:51:16.064Z,92.75
2018-01-03T01:52:23.081Z,92.78
2018-01-03T01:53:30.121Z,92.80
2018-01-03T01:54:37.084Z,92.81
2018-01-03T01:55:43.828Z,92.83
2018-01-03T01:56:50.557Z,92.85
2018-01-03T01:57:57.404Z,92.88
2018-01-03T01:59:04.336Z,92.88
2018-01-03T02:00:11.156Z,92.92
2018-01-03T02:01:18.012Z,92.92
2018-01-03T02:02:24.756Z,92.97
2018-01-03T02:03:31.625Z,92.98
2018-01-03T02:04:38.416Z,92.99
2018-01-03T02:05:45.173Z,93.02
2018-01-03T02:06:52.001Z,93.03
2018-01-03T02:07:58.755Z,93.03
2018-01-03T02:09:05.484Z,93.08
2018-01-03T02:10:12.255Z,93.06
2018-01-03T02:11:19.084Z,93.08
2018-01-03T02:12:25.824Z,93.13
2018-01-03T02:13:32.617Z,93.14
2018-01-03T02:14:39.352Z,93.15
2018-01-03T02:15:46.189Z,93.17
2018-01-03T02:16:53.002Z,93.17
2018-01-03T02:17:59.840Z,93.19
2018-01-03T02:19:06.689Z,93.21
2018-01-03T02:20:13.534Z,93.25
2018-01-03T02:21:20.376Z,93.24
2018-01-03T02:22:27.147Z,93.25
2018-01-03T02:23:33.912Z,93.23
2018-01-03T02:24:40.813Z,93.28
2018-01-03T02:25:47.702Z,93.28
2018-01-03T02:26:54.603Z,93.28
2018-01-03T02:28:01.345Z,93.30
2018-01-03T02:29:08.105Z,93.31
2018-01-03T02:30:15.101Z,93.32
2018-01-03T02:31:21.920Z,93.33
2018-01-03T02:32:28.621Z,93.34
2018-01-03T02:33:35.448Z,93.39
2018-01-03T02:34:42.256Z,93.40
2018-01-03T02:35:49.180Z,93.42
2018-01-03T02:36:55.928Z,93.40
2018-01-03T02:38:02.717Z,93.43
2018-01-03T02:39:10.244Z,93.42
2018-01-03T02:40:16.581Z,93.44
2018-01-03T02:41:25.114Z,93.44
2018-01-03T02:42:30.377Z,93.46
2018-01-03T02:43:37.232Z,93.50
2018-01-03T02:44:43.992Z,93.50
2018-01-03T02:45:50.784Z,93.55
2018-01-03T02:46:57.644Z,93.56
2018-01-03T02:48:04.692Z,93.58
2018-01-03T02:49:11.504Z,93.59
2018-01-03T02:50:18.278Z,93.58
2018-01-03T02:51:25.961Z,93.60
2018-01-03T02:52:32.203Z,93.61
2018-01-03T02:53:38.995Z,93.64
2018-01-03T02:54:45.766Z,93.62
2018-01-03T02:55:52.511Z,93.65
2018-01-03T02:56:59.301Z,93.63
2018-01-03T02:58:06.076Z,93.64
2018-01-03T02:59:12.815Z,93.67
2018-01-03T03:00:19.592Z,93.67
2018-01-03T03:01:26.337Z,93.71
2018-01-03T03:02:33.153Z,93.72
2018-01-03T03:03:40.035Z,93.73
2018-01-03T03:04:46.806Z,93.75
2018-01-03T03:05:53.613Z,93.79
2018-01-03T03:07:00.533Z,93.83
2018-01-03T03:08:07.372Z,93.82
2018-01-03T03:09:14.187Z,93.86
2018-01-03T03:10:21.028Z,93.86
2018-01-03T03:11:27.900Z,93.85
2018-01-03T03:12:34.795Z,93.88
2018-01-03T03:13:41.564Z,93.89
2018-01-03T03:14:48.332Z,93.92
2018-01-03T03:15:55.104Z,93.94
2018-01-03T03:17:02.025Z,93.95
2018-01-03T03:18:08.882Z,93.95
2018-01-03T03:19:15.814Z,93.97
2018-01-03T03:20:22.608Z,93.98
2018-01-03T03:21:29.380Z,93.98
2018-01-03T03:22:36.815Z,94.01
2018-01-03T03:23:43.364Z,94.03
2018-01-03T03:24:50.152Z,94.04
2018-01-03T03:25:56.928Z,94.08
2018-01-03T03:27:03.783Z,94.10
2018-01-03T03:28:10.567Z,94.13
2018-01-03T03:29:17.421Z,94.14
2018-01-03T03:30:24.552Z,94.15
2018-01-03T03:31:31.322Z,94.18
2018-01-03T03:32:38.188Z,94.19
2018-01-03T03:33:45.217Z,94.21
2018-01-03T03:34:52.000Z,94.24
2018-01-03T03:35:58.835Z,94.26
2018-01-03T03:37:05.605Z,94.27
2018-01-03T03:38:12.397Z,94.27
2018-01-03T03:39:19.372Z,94.29
2018-01-03T03:40:25.946Z,94.28
2018-01-03T03:41:32.776Z,94.32
2018-01-03T03:42:39.643Z,94.33
2018-01-03T03:43:46.493Z,94.34
2018-01-03T03:44:54.137Z,94.34
2018-01-03T03:46:00.414Z,94.37
2018-01-03T03:47:07.281Z,94.37
2018-01-03T03:48:14.083Z,94.37
2018-01-03T03:49:21.073Z,94.35
2018-01-03T03:50:28.072Z,94.35
2018-01-03T03:51:34.840Z,94.40
2018-01-03T03:52:41.592Z,94.39
2018-01-03T03:53:48.512Z,94.37
2018-01-03T03:54:55.340Z,94.35
2018-01-03T03:56:02.251Z,94.39
2018-01-03T03:57:09.000Z,94.39
2018-01-03T03:58:15.781Z,94.41
2018-01-03T03:59:22.800Z,94.42
2018-01-03T04:00:29.976Z,94.40
2018-01-03T04:01:36.969Z,94.38
2018-01-03T04:02:43.746Z,94.42
2018-01-03T04:03:50.681Z,94.41
2018-01-03T04:04:57.732Z,94.44
2018-01-03T04:06:04.552Z,94.48
2018-01-03T04:07:11.424Z,94.48
2018-01-03T04:08:18.210Z,94.47
2018-01-03T04:09:25.007Z,94.49
2018-01-03T04:10:31.796Z,94.48
2018-01-03T04:11:38.547Z,94.46
2018-01-03T04:12:45.356Z,94.48
2018-01-03T04:13:52.180Z,94.46
2018-01-03T04:14:59.021Z,94.46
2018-01-03T04:16:05.820Z,94.46
2018-01-03T04:17:12.597Z,94.49
2018-01-03T04:18:19.492Z,94.50
2018-01-03T04:19:26.351Z,94.51
2018-01-03T04:20:33.173Z,94.49
2018-01-03T04:21:39.939Z,94.48
2018-01-03T04:22:46.728Z,94.49
2018-01-03T04:23:53.552Z,94.50
2018-01-03T04:25:00.373Z,94.52
2018-01-03T04:26:07.153Z,94.49
2018-01-03T04:27:13.971Z,94.50
2018-01-03T04:28:20.864Z,94.53
2018-01-03T04:29:27.692Z,94.51
2018-01-03T04:30:34.595Z,94.50
2018-01-03T04:31:41.357Z,94.53
2018-01-03T04:32:48.183Z,94.56
2018-01-03T04:33:54.951Z,94.54
2018-01-03T04:35:01.724Z,94.56
2018-01-03T04:36:08.560Z,94.53
2018-01-03T04:37:15.364Z,94.54
2018-01-03T04:38:22.244Z,94.57
2018-01-03T04:39:29.228Z,94.59
2018-01-03T04:40:36.063Z,94.57
2018-01-03T04:41:42.944Z,94.61
2018-01-03T04:42:49.711Z,94.59
2018-01-03T04:43:56.488Z,94.62
2018-01-03T04:45:03.354Z,94.64
2018-01-03T04:46:10.281Z,94.67
2018-01-03T04:47:17.110Z,94.67
2018-01-03T04:48:23.892Z,94.72
2018-01-03T04:49:30.665Z,94.70
2018-01-03T04:50:37.537Z,94.75
2018-01-03T04:51:44.447Z,94.77
2018-01-03T04:52:51.324Z,94.78
2018-01-03T04:53:58.085Z,94.81
2018-01-03T04:55:04.840Z,94.83
2018-01-03T04:56:11.727Z,94.83
2018-01-03T04:57:18.595Z,94.78
2018-01-03T04:58:25.512Z,94.77
2018-01-03T04:59:32.287Z,94.78
2018-01-03T05:00:39.045Z,94.75
2018-01-03T05:01:45.914Z,94.74
2018-01-03T05:02:52.796Z,94.69
2018-01-03T05:03:59.699Z,94.69
2018-01-03T05:05:06.456Z,94.66
2018-01-03T05:06:13.244Z,94.64
2018-01-03T05:07:20.072Z,94.61
2018-01-03T05:08:27.248Z,94.59
2018-01-03T05:09:34.011Z,94.58
2018-01-03T05:10:41.013Z,94.55
2018-01-03T05:11:47.786Z,94.53
2018-01-03T05:12:54.532Z,94.49
2018-01-03T05:14:01.280Z,94.46
2018-01-03T05:15:08.068Z,94.41
2018-01-03T05:16:14.919Z,94.37
2018-01-03T05:17:21.659Z,94.35
2018-01-03T05:18:28.483Z,94.30
2018-01-03T05:19:35.223Z,94.27
2018-01-03T05:20:41.990Z,94.25
2018-01-03T05:21:48.752Z,94.25
2018-01-03T05:22:55.581Z,94.16
2018-01-03T05:24:02.903Z,94.17
2018-01-03T05:25:09.171Z,94.13
2018-01-03T05:26:15.976Z,94.10
2018-01-03T05:27:22.747Z,94.04
2018-01-03T05:28:29.459Z,94.03
2018-01-03T05:29:36.199Z,93.98
2018-01-03T05:30:43.044Z,93.95
2018-01-03T05:31:49.815Z,93.86
2018-01-03T05:32:56.579Z,93.83
2018-01-03T05:34:03.304Z,93.78
2018-01-03T05:35:10.120Z,93.73
2018-01-03T05:36:16.863Z,93.68
2018-01-03T05:37:23.636Z,93.64
2018-01-03T05:38:30.400Z,93.64
2018-01-03T05:39:37.175Z,93.60
2018-01-03T05:40:43.937Z,93.55
2018-01-03T05:41:50.849Z,93.52
2018-01-03T05:42:58.633Z,93.50
2018-01-03T05:44:04.733Z,93.46
2018-01-03T05:45:11.217Z,93.46
2018-01-03T05:46:18.052Z,93.42
2018-01-03T05:47:24.896Z,93.41
2018-01-03T05:48:32.394Z,93.36
2018-01-03T05:49:38.724Z,93.33
2018-01-03T05:50:48.310Z,93.32
2018-01-03T05:51:52.386Z,93.31
2018-01-03T05:52:59.433Z,93.27
2018-01-03T05:54:06.352Z,93.20
2018-01-03T05:55:13.192Z,93.16
2018-01-03T05:56:19.970Z,93.12
2018-01-03T05:57:26.988Z,93.07
2018-01-03T05:58:33.816Z,93.06
2018-01-03T05:59:40.587Z,93.00
2018-01-03T06:00:47.360Z,92.97
2018-01-03T06:01:54.125Z,92.95
2018-01-03T06:03:00.865Z,92.90
2018-01-03T06:04:07.779Z,92.89
2018-01-03T06:05:14.621Z,92.85
2018-01-03T06:06:21.388Z,92.82
2018-01-03T06:07:28.176Z,92.81
2018-01-03T06:08:35.168Z,92.77
2018-01-03T06:09:41.968Z,92.69
2018-01-03T06:10:48.696Z,92.67
2018-01-03T06:11:55.589Z,92.62
2018-01-03T06:13:02.347Z,92.60
2018-01-03T06:14:09.101Z,92.55
2018-01-03T06:15:15.932Z,92.52
2018-01-03T06:16:22.968Z,92.50
2018-01-03T06:17:29.764Z,92.45
2018-01-03T06:18:36.583Z,92.45
2018-01-03T06:19:43.361Z,92.39
2018-01-03T06:20:50.229Z,92.36
2018-01-03T06:21:57.087Z,92.32
2018-01-03T06:23:03.860Z,92.25
2018-01-03T06:24:10.751Z,92.20
2018-01-03T06:25:17.544Z,92.17
2018-01-03T06:26:24.394Z,92.11
2018-01-03T06:27:31.211Z,92.07
2018-01-03T06:28:37.973Z,92.03
2018-01-03T06:29:44.769Z,91.93
2018-01-03T06:30:51.613Z,91.85
2018-01-03T06:31:58.520Z,91.72
2018-01-03T06:33:05.454Z,91.63
2018-01-03T06:34:12.243Z,91.50
2018-01-03T06:35:19.004Z,91.31
2018-01-03T06:36:25.788Z,91.22
2018-01-03T06:37:32.548Z,91.02
2018-01-03T06:38:39.328Z,90.83
2018-01-03T06:39:46.928Z,90.61
2018-01-03T06:40:53.364Z,90.41
2018-01-03T06:42:00.200Z,90.04
2018-01-03T06:43:06.928Z,89.78
2018-01-03T06:44:13.747Z,89.44
2018-01-03T06:45:20.649Z,89.33
2018-01-03T06:46:27.401Z,89.10
2018-01-03T06:47:34.237Z,88.87
2018-01-03T06:48:41.029Z,88.61
2018-01-03T06:49:47.800Z,88.45
2018-01-03T06:50:54.656Z,88.20
2018-01-03T06:52:01.593Z,88.02
2018-01-03T06:53:08.409Z,87.74
2018-01-03T06:54:15.377Z,87.46
2018-01-03T06:55:22.228Z,87.35
2018-01-03T06:56:29.020Z,87.12
2018-01-03T06:57:36.739Z,87.03
2018-01-03T06:58:42.596Z,86.81
2018-01-03T06:59:49.380Z,86.67
2018-01-03T07:00:56.168Z,86.29
2018-01-03T07:02:03.033Z,86.07
2018-01-03T07:03:09.833Z,85.87
2018-01-03T07:04:16.615Z,85.67
2018-01-03T07:05:23.424Z,85.49
2018-01-03T07:06:30.233Z,85.36
2018-01-03T07:07:37.093Z,85.03
2018-01-03T07:08:43.851Z,84.88
2018-01-03T07:09:50.696Z,84.58
2018-01-03T07:10:57.467Z,84.46
2018-01-03T07:12:04.952Z,84.32
2018-01-03T07:13:11.042Z,84.16
2018-01-03T07:14:17.861Z,83.97
2018-01-03T07:15:24.688Z,83.68
2018-01-03T07:16:31.505Z,83.49
2018-01-03T07:17:38.656Z,83.32
2018-01-03T07:18:45.587Z,83.09
2018-01-03T07:19:52.360Z,82.99
2018-01-03T07:20:59.140Z,82.81
2018-01-03T07:22:06.000Z,82.60
2018-01-03T07:23:12.813Z,82.48
2018-01-03T07:24:19.609Z,82.31
2018-01-03T07:25:26.419Z,82.14
2018-01-03T07:26:33.176Z,81.92
2018-01-03T07:27:40.000Z,81.81
2018-01-03T07:28:46.819Z,81.76
2018-01-03T07:29:53.592Z,81.54
2018-01-03T07:31:00.444Z,81.50
2018-01-03T07:32:07.284Z,81.27
2018-01-03T07:33:14.076Z,81.05
2018-01-03T07:34:20.927Z,80.92
2018-01-03T07:35:27.717Z,80.83
2018-01-03T07:36:34.702Z,80.65
2018-01-03T07:37:41.492Z,80.50
2018-01-03T07:38:48.287Z,80.37
2018-01-03T07:39:55.440Z,80.12
2018-01-03T07:41:02.201Z,80.04
2018-01-03T07:42:09.020Z,79.83
2018-01-03T07:43:15.793Z,79.65
2018-01-03T07:44:22.552Z,79.59
2018-01-03T07:45:29.474Z,79.44
2018-01-03T07:46:36.281Z,79.34
2018-01-03T07:47:43.092Z,79.25
2018-01-03T07:48:49.897Z,79.13
2018-01-03T07:49:56.687Z,78.93
2018-01-03T07:51:03.467Z,78.84
2018-01-03T07:52:10.300Z,78.70
2018-01-03T07:53:17.111Z,78.54
2018-01-03T07:54:23.988Z,78.44
2018-01-03T07:55:30.756Z,78.33
2018-01-03T07:56:37.536Z,78.23
2018-01-03T07:57:44.575Z,78.13
2018-01-03T07:58:51.356Z,77.99
2018-01-03T07:59:58.145Z,77.93
2018-01-03T08:01:04.941Z,77.84
2018-01-03T08:02:11.792Z,77.70
2018-01-03T08:03:18.660Z,77.51
2018-01-03T08:04:25.543Z,77.62
2018-01-03T08:05:32.459Z,77.48
2018-01-03T08:06:39.297Z,77.38
2018-01-03T08:07:46.052Z,77.35
2018-01-03T08:08:52.836Z,77.25
2018-01-03T08:09:59.685Z,77.22
2018-01-03T08:11:06.435Z,77.16
2018-01-03T08:12:13.275Z,76.98
2018-01-03T08:13:20.060Z,76.93
2018-01-03T08:14:27.212Z,76.91
2018-01-03T08:15:33.651Z,76.89
2018-01-03T08:16:40.415Z,76.84
2018-01-03T08:17:47.168Z,76.77
2018-01-03T08:18:54.012Z,76.72
2018-01-03T08:20:00.869Z,76.65
2018-01-03T08:21:07.739Z,76.58
2018-01-03T08:22:14.504Z,76.51
2018-01-03T08:23:21.380Z,76.43
2018-01-03T08:24:28.468Z,76.37
2018-01-03T08:25:35.097Z,76.35
2018-01-03T08:26:41.984Z,76.34
2018-01-03T08:27:48.674Z,76.25
2018-01-03T08:28:55.698Z,76.19
2018-01-03T08:30:02.817Z,76.14
2018-01-03T08:31:09.745Z,76.08
2018-01-03T08:32:16.632Z,76.07
2018-01-03T08:33:23.439Z,75.97
2018-01-03T08:34:30.412Z,75.97
2018-01-03T08:35:37.460Z,75.95
2018-01-03T08:36:44.361Z,75.94
2018-01-03T08:37:51.268Z,75.88
2018-01-03T08:38:58.100Z,75.84
2018-01-03T08:40:05.124Z,75.82
2018-01-03T08:41:11.976Z,75.77
2018-01-03T08:42:18.853Z,75.69
2018-01-03T08:43:25.624Z,75.60
2018-01-03T08:44:32.389Z,75.53
2018-01-03T08:45:39.178Z,75.44
2018-01-03T08:46:45.985Z,75.39
2018-01-03T08:47:52.772Z,75.30
2018-01-03T08:48:59.635Z,75.20
2018-01-03T08:50:06.520Z,75.15
2018-01-03T08:51:13.381Z,75.09
2018-01-03T08:52:20.266Z,75.04
2018-01-03T08:53:27.029Z,74.92
2018-01-03T08:54:33.856Z,74.83
2018-01-03T08:55:40.694Z,74.75
2018-01-03T08:56:47.457Z,74.57
2018-01-03T08:57:54.287Z,74.44
2018-01-03T08:59:01.056Z,74.41
2018-01-03T09:00:07.804Z,74.25
2018-01-03T09:01:14.673Z,74.23
2018-01-03T09:02:21.500Z,74.15
2018-01-03T09:03:28.608Z,74.09
2018-01-03T09:04:35.424Z,73.90
2018-01-03T09:05:42.180Z,73.75
2018-01-03T09:06:49.016Z,73.69
2018-01-03T09:07:55.925Z,73.58
2018-01-03T09:09:02.780Z,73.46
2018-01-03T09:10:09.643Z,73.43
2018-01-03T09:11:16.445Z,73.30
2018-01-03T09:12:23.268Z,73.22
2018-01-03T09:13:30.060Z,73.07
2018-01-03T09:14:36.845Z,73.11
2018-01-03T09:15:43.580Z,73.04
2018-01-03T09:16:50.345Z,72.93
2018-01-03T09:17:57.180Z,72.88
2018-01-03T09:19:04.092Z,72.85
2018-01-03T09:20:10.916Z,72.69
2018-01-03T09:21:18.035Z,72.71
2018-01-03T09:22:24.845Z,72.73
2018-01-03T09:23:31.926Z,72.76
2018-01-03T09:24:39.980Z,72.64
2018-01-03T09:25:45.756Z,72.62
2018-01-03T09:26:52.555Z,72.67
2018-01-03T09:27:59.329Z,72.66
2018-01-03T09:29:06.140Z,72.66
2018-01-03T09:30:12.991Z,72.66
2018-01-03T09:31:19.783Z,72.73
2018-01-03T09:32:26.580Z,72.66
2018-01-03T09:33:33.399Z,72.67
2018-01-03T09:34:40.227Z,72.70
2018-01-03T09:35:47.300Z,72.81
2018-01-03T09:36:54.108Z,72.82
2018-01-03T09:38:01.029Z,72.79
2018-01-03T09:39:07.848Z,72.90
2018-01-03T09:40:14.628Z,72.92
2018-01-03T09:41:21.472Z,72.92
2018-01-03T09:42:28.232Z,73.00
2018-01-03T09:43:35.044Z,73.05
2018-01-03T09:44:41.835Z,73.09
2018-01-03T09:45:48.640Z,73.11
2018-01-03T09:46:55.458Z,73.16
2018-01-03T09:48:02.310Z,73.10
2018-01-03T09:49:09.148Z,73.14
2018-01-03T09:50:16.064Z,73.19
2018-01-03T09:51:22.819Z,73.20
2018-01-03T09:52:29.580Z,73.19
2018-01-03T09:53:36.339Z,73.18
2018-01-03T09:54:43.199Z,73.20
2018-01-03T09:55:50.117Z,73.18
2018-01-03T09:56:56.964Z,73.24
2018-01-03T09:58:03.788Z,73.18
2018-01-03T09:59:10.578Z,73.25
2018-01-03T10:00:17.432Z,73.26
2018-01-03T10:01:24.229Z,73.23
2018-01-03T10:02:31.213Z,73.27
2018-01-03T10:03:38.033Z,73.21
2018-01-03T10:04:44.794Z,73.19
2018-01-03T10:05:51.577Z,73.08
2018-01-03T10:06:58.377Z,73.12
2018-01-03T10:08:05.277Z,73.18
2018-01-03T10:09:12.235Z,73.17
2018-01-03T10:10:19.001Z,73.17
2018-01-03T10:11:26.084Z,73.21
2018-01-03T10:12:33.028Z,73.14
2018-01-03T10:13:39.896Z,73.12
2018-01-03T10:14:46.736Z,73.15
2018-01-03T10:15:53.529Z,73.08
2018-01-03T10:17:00.275Z,73.01
2018-01-03T10:18:07.184Z,73.03
2018-01-03T10:19:13.982Z,72.96
2018-01-03T10:20:20.720Z,72.96
2018-01-03T10:21:27.883Z,72.81
2018-01-03T10:22:34.364Z,72.84
2018-01-03T10:23:41.151Z,72.81
2018-01-03T10:24:47.926Z,72.79
2018-01-03T10:25:54.722Z,72.77
2018-01-03T10:27:01.508Z,72.69
2018-01-03T10:28:08.268Z,72.65
2018-01-03T10:29:14.971Z,72.65
2018-01-03T10:30:21.782Z,72.59
2018-01-03T10:31:28.594Z,72.50
2018-01-03T10:32:35.320Z,72.51
2018-01-03T10:33:42.155Z,72.48
2018-01-03T10:34:48.960Z,72.43
2018-01-03T10:35:55.952Z,72.42
2018-01-03T10:37:02.668Z,72.38
2018-01-03T10:38:09.440Z,72.30
2018-01-03T10:39:16.235Z,72.30
2018-01-03T10:40:22.998Z,72.28
2018-01-03T10:41:29.732Z,72.19
2018-01-03T10:42:36.464Z,72.22
2018-01-03T10:43:43.226Z,72.26
2018-01-03T10:44:50.137Z,72.13
2018-01-03T10:45:56.918Z,72.07
2018-01-03T10:47:03.800Z,71.95
2018-01-03T10:48:10.968Z,71.87
2018-01-03T10:49:17.692Z,71.91
2018-01-03T10:50:24.436Z,71.87
2018-01-03T10:51:31.172Z,71.73
2018-01-03T10:52:38.024Z,71.81
2018-01-03T10:53:44.764Z,71.72
2018-01-03T10:54:51.524Z,71.67
2018-01-03T10:55:58.673Z,71.60
2018-01-03T10:57:05.413Z,71.53
2018-01-03T10:58:12.232Z,71.60
2018-01-03T10:59:18.981Z,71.63
2018-01-03T11:00:25.745Z,71.62
2018-01-03T11:01:32.547Z,71.68
2018-01-03T11:02:39.327Z,71.77
2018-01-03T11:03:46.082Z,71.82
2018-01-03T11:04:53.124Z,71.82
2018-01-03T11:05:59.956Z,71.88
2018-01-03T11:07:06.940Z,71.90
2018-01-03T11:08:13.660Z,71.94
2018-01-03T11:09:20.425Z,71.90
2018-01-03T11:10:27.224Z,71.88
2018-01-03T11:11:34.073Z,71.86
2018-01-03T11:12:40.743Z,71.90
2018-01-03T11:13:47.527Z,71.95
2018-01-03T11:14:54.380Z,72.02
2018-01-03T11:16:01.120Z,72.08
2018-01-03T11:17:07.878Z,72.07
2018-01-03T11:18:14.651Z,71.95
2018-01-03T11:19:21.447Z,72.06
2018-01-03T11:20:28.168Z,72.06
2018-01-03T11:21:34.992Z,72.10
2018-01-03T11:22:41.862Z,72.04
2018-01-03T11:23:48.729Z,72.02
2018-01-03T11:24:55.672Z,72.14
2018-01-03T11:26:02.485Z,72.19
2018-01-03T11:27:09.339Z,72.24
2018-01-03T11:28:16.173Z,72.14
2018-01-03T11:29:23.056Z,72.12
2018-01-03T11:30:29.903Z,72.17
2018-01-03T11:31:36.985Z,72.05
2018-01-03T11:32:43.761Z,72.18
2018-01-03T11:33:50.515Z,72.08
2018-01-03T11:34:57.248Z,72.15
2018-01-03T11:36:04.115Z,72.09
2018-01-03T11:37:10.944Z,72.00
2018-01-03T11:38:18.249Z,71.96
2018-01-03T11:39:24.544Z,71.95
2018-01-03T11:40:31.313Z,71.94
2018-01-03T11:41:38.154Z,71.88
2018-01-03T11:42:44.980Z,71.85
2018-01-03T11:43:51.744Z,71.86
2018-01-03T11:44:58.504Z,71.73
2018-01-03T11:46:05.281Z,71.63
2018-01-03T11:47:12.075Z,71.49
2018-01-03T11:48:18.955Z,71.35
2018-01-03T11:49:26.214Z,71.33
2018-01-03T11:50:32.804Z,71.26
2018-01-03T11:51:39.604Z,71.25
2018-01-03T11:52:46.339Z,71.27
2018-01-03T11:53:53.100Z,71.16
2018-01-03T11:54:59.848Z,71.14
2018-01-03T11:56:06.720Z,71.08
2018-01-03T11:57:13.533Z,71.10
2018-01-03T11:58:20.224Z,71.03
2018-01-03T11:59:26.977Z,70.99
2018-01-03T12:00:33.820Z,70.98
2018-01-03T12:01:40.644Z,70.91
2018-01-03T12:02:47.501Z,70.86
2018-01-03T12:03:54.340Z,70.78
2018-01-03T12:05:01.100Z,70.79
2018-01-03T12:06:07.925Z,70.69
2018-01-03T12:07:14.806Z,70.78
2018-01-03T12:08:21.593Z,70.69
2018-01-03T12:09:28.437Z,70.68
2018-01-03T12:10:35.202Z,70.76
2018-01-03T12:11:41.948Z,70.78
2018-01-03T12:12:48.684Z,70.74
2018-01-03T12:13:55.496Z,70.76
2018-01-03T12:15:02.309Z,70.74
2018-01-03T12:16:09.100Z,70.76
2018-01-03T12:17:15.895Z,70.86
2018-01-03T12:18:22.639Z,70.81
2018-01-03T12:19:30.287Z,70.82
2018-01-03T12:20:36.568Z,70.93
2018-01-03T12:21:43.312Z,70.97
2018-01-03T12:22:51.117Z,71.00
2018-01-03T12:23:56.840Z,71.02
2018-01-03T12:25:03.614Z,71.02
2018-01-03T12:26:10.442Z,71.01
2018-01-03T12:27:17.196Z,71.08
2018-01-03T12:28:23.965Z,71.06
2018-01-03T12:29:30.772Z,71.11
2018-01-03T12:30:37.624Z,71.14
2018-01-03T12:31:44.493Z,71.18
2018-01-03T12:32:51.276Z,71.19
2018-01-03T12:33:58.048Z,71.26
2018-01-03T12:35:05.393Z,71.30
2018-01-03T12:36:11.697Z,71.25
2018-01-03T12:37:18.472Z,71.25
2018-01-03T12:38:25.260Z,71.34
2018-01-03T12:39:32.012Z,71.31
2018-01-03T12:40:38.848Z,71.34
2018-01-03T12:41:45.772Z,71.38
2018-01-03T12:42:52.616Z,71.43
2018-01-03T12:43:59.376Z,71.44
2018-01-03T12:45:06.107Z,71.47
2018-01-03T12:46:12.877Z,71.54
2018-01-03T12:47:19.667Z,71.64
2018-01-03T12:48:26.460Z,71.78
2018-01-03T12:49:38.448Z,71.83
2018-01-03T12:50:40.208Z,71.85
2018-01-03T12:51:46.966Z,71.83
2018-01-03T12:52:53.852Z,71.99
2018-01-03T12:54:00.797Z,71.99
2018-01-03T12:55:07.627Z,72.04
2018-01-03T12:56:14.380Z,72.11
2018-01-03T12:57:21.192Z,72.21
2018-01-03T12:58:28.048Z,72.27
2018-01-03T12:59:34.852Z,72.27
2018-01-03T13:00:41.844Z,72.43
2018-01-03T13:01:48.684Z,72.59
2018-01-03T13:02:55.544Z,72.66
2018-01-03T13:04:05.652Z,72.71
2018-01-03T13:05:09.452Z,72.76
2018-01-03T13:06:16.372Z,72.80
2018-01-03T13:07:23.155Z,72.82
2018-01-03T13:08:29.952Z,72.92
2018-01-03T13:09:37.133Z,72.94
2018-01-03T13:10:43.496Z,73.04
2018-01-03T13:11:50.284Z,73.08
2018-01-03T13:12:57.113Z,73.17
2018-01-03T13:14:03.916Z,73.21
2018-01-03T13:15:10.905Z,73.23
2018-01-03T13:16:17.717Z,73.31
2018-01-03T13:17:25.931Z,73.31
2018-01-03T13:18:32.021Z,73.40
2018-01-03T13:19:38.277Z,73.53
2018-01-03T13:20:45.196Z,73.56
2018-01-03T13:21:51.928Z,73.60
2018-01-03T13:22:58.758Z,73.71
2018-01-03T13:24:05.672Z,73.73
2018-01-03T13:25:12.810Z,73.64
2018-01-03T13:26:19.647Z,73.70
2018-01-03T13:27:26.369Z,73.67
2018-01-03T13:28:33.503Z,73.60
2018-01-03T13:29:40.332Z,73.57
2018-01-03T13:30:47.095Z,73.51
2018-01-03T13:31:53.863Z,73.54
2018-01-03T13:33:00.580Z,73.52
2018-01-03T13:34:07.419Z,73.57
2018-01-03T13:35:14.147Z,73.59
2018-01-03T13:36:20.912Z,73.59
2018-01-03T13:37:27.759Z,73.65
2018-01-03T13:38:34.484Z,73.63
2018-01-03T13:39:41.272Z,73.51
2018-01-03T13:40:48.321Z,73.52
2018-01-03T13:41:55.182Z,73.56
2018-01-03T13:43:01.949Z,73.60
2018-01-03T13:44:09.121Z,73.65
2018-01-03T13:45:15.902Z,73.64
2018-01-03T13:46:22.571Z,73.63
2018-01-03T13:47:29.564Z,73.65
2018-01-03T13:48:36.315Z,73.65
2018-01-03T13:49:43.084Z,73.77
2018-01-03T13:50:49.981Z,73.83
2018-01-03T13:51:56.796Z,73.90
2018-01-03T13:53:06.636Z,74.00
2018-01-03T13:54:10.494Z,74.06
2018-01-03T13:55:17.399Z,74.04
2018-01-03T13:56:24.188Z,74.07
2018-01-03T13:57:31.057Z,74.06
2018-01-03T13:58:37.962Z,74.17
2018-01-03T13:59:45.061Z,74.17
2018-01-03T14:00:52.069Z,74.21
2018-01-03T14:01:58.920Z,74.18
2018-01-03T14:03:06.004Z,74.28
2018-01-03T14:04:12.839Z,74.27
2018-01-03T14:05:19.869Z,74.31
2018-01-03T14:06:26.925Z,74.27
2018-01-03T14:07:33.779Z,74.33
2018-01-03T14:08:40.680Z,74.36
2018-01-03T14:09:47.468Z,74.40
2018-01-03T14:10:54.277Z,74.44
2018-01-03T14:12:01.112Z,74.51
2018-01-03T14:13:07.877Z,74.59
2018-01-03T14:14:14.712Z,74.61
2018-01-03T14:15:21.541Z,74.64
2018-01-03T14:16:28.353Z,74.70
2018-01-03T14:17:35.100Z,74.70
2018-01-03T14:18:41.838Z,74.73
2018-01-03T14:19:48.605Z,74.73
2018-01-03T14:20:55.377Z,74.75